Terminal Aerodrome Forecast
Issued by NWS Greer, SC

Home | Current Version | Previous Version | Text Only | Print | Product List | Glossary On
Versions: 1 2 3 4 5 6 7 8 9 10 11 12 13 14 15 16 17 18 19 20 21 22 23 24 25 26 27 28 29 30 31 32 33 34 35 36 37 38 39 40 41 42 43 44 45 46 47 48 49 50
000
FTUS42 KGSP 191433 AAA
TAFCLT
TAF AMD
KCLT 191433Z 1915/2012 07004KT P6SM SCT200
     FM191800 10003KT P6SM SCT090
     FM192100 18003KT P6SM BKN080 PROB30 2006/2009 4SM -SHRA OVC025
     FM200900 15005KT 5SM -SHRA OVC015=

USA.gov is the U.S. government's official web portal to all federal, state and local government web resources and services.